Airfield :
LOGIN :

Register | Disclaimer

   EN    FR    IT 

 










Legend :    VFR   Marginal VFR   IFR   Intensive IFR   Very Intensive IFR
Visi :
Ceiling :
>= 8 km
>= 3000ft
5 to 8 km
1000 to 3000 ft
1500m to 5 km
500 to 1000 ft
800 to 1500m
200 to 500 ft
< 800m
< 200 ft
Symbols :   Thunderstorms  Fog  Heavy snow  Heavy precipitations  Wind > 20 kt
SIGMETs :     Misc.  Thunderstorms  Icing  Turbulence  Mountain Waves  Volcanic Ashes






- Airport Elevation : 327 ft
- IATA code : BHX


EGBB - Birmingham

CURRENT METAR :
  • 131650Z 15007KT CAVOK 04/02 Q0993

EXPIRED METARs :
  • 131620Z 14006KT CAVOK 04/02 Q0994
  • 131550Z 13006KT CAVOK 06/02 Q0994
  • 131520Z 16006KT 140V200 9999 FEW026 06/02 Q0995
  • 131450Z 18007KT 9999 FEW020 07/02 Q0995
  • 131420Z 17006KT 9999 FEW020 07/03 Q0996

TAF TAF EGBB
Valid from the 13 at 12:00 until the 14 at 12:00 UTC


131059Z 1312/1412 23006KT 9999 SCT035
BECMG 1317/1320 09011KT
TEMPO 1322/1412 BKN012
PROB30
TEMPO 1400/1409 6000 RA BKN009
BECMG 1401/1404 03012KT
TEMPO 1409/1412 6000 RA BKN009
PROB40
TEMPO 1409/1412 02015G25KT
ATIS : +44 121 780 0910



MET'MAP, your aeronautical weather chart ! - Copyright ORBIFLY December 2007 - Disclaimer

ORBIFLY MET'MAP TEAM :

Programming & Development : Alexandra Zaïnal
Concept & Development : Baudouin d'Aumeries
Co-Development & Prog : Marc-Olivier Méhu
Technical & hardware support : Manuel Goepfert

Contact : metmap@orbifly.com




SOURCES & CREDITS :

   NOAA